Dublin, NH

1:38 PM EDT on June 28, 2017 (GMT -0400)
Nubanusit Neighborhood | | Change Station

Elev 820 ft 42.88 °N, 71.97 °W | Updated 20 seconds ago

Mostly Cloudy
Mostly Cloudy
70.9 °F
Feels Like 77 °F
N
4.9
Wind Variable Wind from West
Gusts 4.9 mph

Today
High -- | Low -- °F
--% Chance of Precip.
Yesterday
High -- | Low -- °F
Precip. -- in
Pressure 30.06 in
Visibility 10.0 miles
Clouds Scattered Clouds 6500 ft
Heat Index 77 °F
Dew Point 52 °F
Humidity 51%
Rainfall 0.00 in
Snow Depth Not available.
5:11 AM 8:31 PM
Waxing Crescent, 27% visible
METAR KAFN 281652Z AUTO VRB06KT 10SM SCT065 21/08 A3005 RMK AO2 SLP180 T02060083 TSNO
Pressure 30.06 in
Visibility 10.0 miles
Clouds Scattered Clouds 6500 ft
Heat Index 77 °F
Dew Point 52 °F
Humidity 51%
Rainfall 0.00 in
Snow Depth Not available.
5:11 AM 8:31 PM
Waxing Crescent, 27% visible
METAR KAFN 281652Z AUTO VRB06KT 10SM SCT065 21/08 A3005 RMK AO2 SLP180 T02060083 TSNO

Get Severe Weather Alerts

Thanks for signing up!

Be on the lookout for a verification email in your inbox.

You'll start receiving the daily forecast at 6 AM.

×

10-Day Weather Forecast

Almanac

Astronomy

Jun. 28, 2017 Rise Set
Actual Time
Civil Twilight
Nautical Twilight
Astronomical Twilight
Moon
Length of Visible Light
Length of Day
Tomorrow will be .
, % of the Moon is Illuminated

Today's Extremes

State Highs State Lows

Community

WunderPhotos

Category 6

Welcome to Category 6. This is the collective home for Weather Underground's featured writeups by Dr. Jeff Masters (right), Bob Henson (left), Chris Burt, and other regular contributors.

Nearby

Air Quality

  Air Quality AQ Index Pollutant
Not available.

Snow Depth

Station Depth Elevation

Earthquake Activity

City Distance Mag. Time & Date
Minimum magnitude displayed is 2.5.

Coastal Water Temperatures

Place Temperature

Stations

Nearby Weather Stations

Station Location Temp. Windchill Dew Point Humidity Wind Precip. Elev Updated Type
                   

Watches & Warnings

There are currently no watches in effect.